GLD1974 SBPC-SBPK
Flight info
| Callsign | GLD1974 |
|---|---|
| Flight time | 2h 13m |
| Altitude | 36000 |
| Route | OPRUT DCT VUNOX UZ38 PALEL UM424 ARSAG |
| Aircraft | A319/M-SDE3FGHIRWY/LB1 |
Departure
| Time | 2026-05-06 12:01 |
|---|---|
| Airport | Poços de Caldas - Embaixador Walther Moreira Salles Airport (SBPC) |
Arrival
| Time | 2026-05-06 14:14 |
|---|---|
| Airport | João Simões Lopes Neto International Airport (SBPK) |
| Time | Latitude | Longitude | Altitude | Speed | Heading |
|---|---|---|---|---|---|
| 2026-05-06 11:44 | -21.83899 | -46.56558 | 4115 ft | 0 kts | 192° |
| 2026-05-06 11:56 | -21.83905 | -46.56563 | 4115 ft | 4 kts | 208° |
| 2026-05-06 11:56 | -21.83948 | -46.56598 | 4114 ft | 9 kts | 220° |
| 2026-05-06 11:56 | -21.83996 | -46.56647 | 4112 ft | 10 kts | 224° |
| 2026-05-06 11:57 | -21.84056 | -46.56704 | 4109 ft | 13 kts | 221° |
| 2026-05-06 11:57 | -21.84126 | -46.56765 | 4113 ft | 13 kts | 219° |
| 2026-05-06 11:57 | -21.84196 | -46.56829 | 4110 ft | 13 kts | 226° |
| 2026-05-06 11:57 | -21.84237 | -46.56920 | 4122 ft | 14 kts | 250° |
| 2026-05-06 11:58 | -21.84271 | -46.57017 | 4134 ft | 13 kts | 249° |
| 2026-05-06 11:58 | -21.84302 | -46.57106 | 4136 ft | 12 kts | 250° |
| 2026-05-06 11:58 | -21.84320 | -46.57160 | 4136 ft | 11 kts | 250° |
| 2026-05-06 11:58 | -21.84348 | -46.57241 | 4137 ft | 12 kts | 250° |
| 2026-05-06 11:59 | -21.84379 | -46.57332 | 4135 ft | 14 kts | 249° |
| 2026-05-06 11:59 | -21.84415 | -46.57433 | 4137 ft | 15 kts | 249° |
| 2026-05-06 11:59 | -21.84459 | -46.57572 | 4136 ft | 15 kts | 265° |
| 2026-05-06 11:59 | -21.84462 | -46.57634 | 4135 ft | 7 kts | 208° |
| 2026-05-06 12:00 | -21.84473 | -46.57613 | 4129 ft | 4 kts | 99° |
| 2026-05-06 12:00 | -21.84469 | -46.57592 | 4135 ft | 0 kts | 71° |
| 2026-05-06 12:00 | -21.84424 | -46.57457 | 4136 ft | 64 kts | 69° |
| 2026-05-06 12:01 | -21.84151 | -46.56671 | 4137 ft | 152 kts | 70° |
| 2026-05-06 12:01 | -21.83770 | -46.55554 | 4884 ft | 160 kts | 70° |
| 2026-05-06 12:01 | -21.83397 | -46.54435 | 5849 ft | 157 kts | 70° |
| 2026-05-06 12:01 | -21.83012 | -46.53290 | 6348 ft | 173 kts | 71° |
| 2026-05-06 12:02 | -21.82566 | -46.52000 | 6672 ft | 195 kts | 71° |
| 2026-05-06 12:02 | -21.82172 | -46.50511 | 6905 ft | 221 kts | 88° |
| 2026-05-06 12:02 | -21.82591 | -46.48855 | 7167 ft | 248 kts | 123° |
| 2026-05-06 12:02 | -21.84012 | -46.47686 | 7489 ft | 274 kts | 158° |
| 2026-05-06 12:03 | -21.85940 | -46.47427 | 8070 ft | 286 kts | 179° |
| 2026-05-06 12:03 | -21.87934 | -46.47638 | 8747 ft | 290 kts | 186° |
| 2026-05-06 12:03 | -21.89940 | -46.48024 | 9413 ft | 294 kts | 189° |
| 2026-05-06 12:03 | -21.91960 | -46.48444 | 10102 ft | 296 kts | 188° |
| 2026-05-06 12:04 | -21.94025 | -46.48843 | 10406 ft | 311 kts | 187° |
| 2026-05-06 12:04 | -21.96217 | -46.49217 | 10636 ft | 324 kts | 186° |
| 2026-05-06 12:04 | -21.98465 | -46.49561 | 11049 ft | 329 kts | 186° |
| 2026-05-06 12:04 | -22.00747 | -46.49882 | 11500 ft | 331 kts | 185° |
| 2026-05-06 12:05 | -22.03008 | -46.50187 | 11918 ft | 333 kts | 185° |
| 2026-05-06 12:05 | -22.05317 | -46.50493 | 12354 ft | 335 kts | 185° |
| 2026-05-06 12:05 | -22.07640 | -46.50802 | 12736 ft | 337 kts | 185° |
| 2026-05-06 12:05 | -22.09979 | -46.51114 | 13118 ft | 339 kts | 185° |
| 2026-05-06 12:06 | -22.12329 | -46.51432 | 13473 ft | 341 kts | 186° |
| 2026-05-06 12:06 | -22.14688 | -46.51755 | 13844 ft | 342 kts | 186° |
| 2026-05-06 12:06 | -22.17056 | -46.52080 | 14168 ft | 344 kts | 186° |
| 2026-05-06 12:06 | -22.19435 | -46.52406 | 14478 ft | 345 kts | 186° |
| 2026-05-06 12:07 | -22.21821 | -46.52732 | 14786 ft | 346 kts | 186° |
| 2026-05-06 12:07 | -22.24218 | -46.53058 | 15091 ft | 347 kts | 186° |
| 2026-05-06 12:07 | -22.26616 | -46.53387 | 15370 ft | 348 kts | 186° |
| 2026-05-06 12:07 | -22.29014 | -46.53715 | 15662 ft | 348 kts | 186° |
| 2026-05-06 12:08 | -22.31420 | -46.54045 | 15939 ft | 348 kts | 186° |
| 2026-05-06 12:08 | -22.33834 | -46.54376 | 16197 ft | 350 kts | 187° |
| 2026-05-06 12:08 | -22.36251 | -46.54708 | 16462 ft | 350 kts | 187° |
| 2026-05-06 12:08 | -22.38673 | -46.55039 | 16705 ft | 352 kts | 187° |
| 2026-05-06 12:09 | -22.41106 | -46.55371 | 16946 ft | 353 kts | 187° |
| 2026-05-06 12:09 | -22.43550 | -46.55707 | 17182 ft | 354 kts | 187° |
| 2026-05-06 12:09 | -22.45971 | -46.56041 | 17413 ft | 355 kts | 187° |
| 2026-05-06 12:09 | -22.48422 | -46.56380 | 17639 ft | 356 kts | 187° |
| 2026-05-06 12:10 | -22.50885 | -46.56721 | 17871 ft | 357 kts | 187° |
| 2026-05-06 12:10 | -22.53351 | -46.57063 | 18079 ft | 357 kts | 187° |
| 2026-05-06 12:10 | -22.55825 | -46.57404 | 18279 ft | 359 kts | 187° |
| 2026-05-06 12:10 | -22.58307 | -46.57743 | 18472 ft | 359 kts | 187° |
| 2026-05-06 12:11 | -22.60794 | -46.58084 | 18647 ft | 360 kts | 188° |
| 2026-05-06 12:11 | -22.63283 | -46.58425 | 18821 ft | 361 kts | 188° |
| 2026-05-06 12:11 | -22.65781 | -46.58766 | 18990 ft | 362 kts | 188° |
| 2026-05-06 12:11 | -22.68283 | -46.59109 | 19160 ft | 363 kts | 188° |
| 2026-05-06 12:12 | -22.70790 | -46.59454 | 19339 ft | 363 kts | 188° |
| 2026-05-06 12:12 | -22.73299 | -46.59801 | 19502 ft | 364 kts | 188° |
| 2026-05-06 12:12 | -22.75780 | -46.60144 | 19668 ft | 365 kts | 188° |
| 2026-05-06 12:12 | -22.78304 | -46.60492 | 19837 ft | 365 kts | 188° |
| 2026-05-06 12:13 | -22.80826 | -46.60840 | 20005 ft | 366 kts | 188° |
| 2026-05-06 12:13 | -22.83357 | -46.61187 | 20169 ft | 366 kts | 188° |
| 2026-05-06 12:13 | -22.85887 | -46.61533 | 20326 ft | 367 kts | 188° |
| 2026-05-06 12:13 | -22.88423 | -46.61881 | 20483 ft | 368 kts | 188° |
| 2026-05-06 12:14 | -22.90969 | -46.62232 | 20641 ft | 368 kts | 188° |
| 2026-05-06 12:14 | -22.93511 | -46.62583 | 20802 ft | 369 kts | 188° |
| 2026-05-06 12:14 | -22.96058 | -46.62936 | 20953 ft | 370 kts | 188° |
| 2026-05-06 12:14 | -22.98611 | -46.63291 | 21103 ft | 370 kts | 188° |
| 2026-05-06 12:15 | -23.01169 | -46.63647 | 21257 ft | 371 kts | 188° |
| 2026-05-06 12:15 | -23.03728 | -46.64003 | 21411 ft | 371 kts | 188° |
| 2026-05-06 12:15 | -23.06295 | -46.64359 | 21559 ft | 372 kts | 188° |
| 2026-05-06 12:15 | -23.08862 | -46.64715 | 21698 ft | 372 kts | 188° |
| 2026-05-06 12:16 | -23.11435 | -46.65071 | 21847 ft | 373 kts | 188° |
| 2026-05-06 12:16 | -23.14014 | -46.65427 | 21981 ft | 374 kts | 188° |
| 2026-05-06 12:16 | -23.16562 | -46.65780 | 22115 ft | 374 kts | 188° |
| 2026-05-06 12:16 | -23.19148 | -46.66136 | 22254 ft | 375 kts | 188° |
| 2026-05-06 12:17 | -23.21740 | -46.66495 | 22397 ft | 375 kts | 188° |
| 2026-05-06 12:17 | -23.24330 | -46.66855 | 22530 ft | 376 kts | 189° |
| 2026-05-06 12:17 | -23.26926 | -46.67218 | 22663 ft | 376 kts | 189° |
| 2026-05-06 12:17 | -23.29477 | -46.67829 | 22793 ft | 375 kts | 199° |
| 2026-05-06 12:18 | -23.31890 | -46.68896 | 22928 ft | 375 kts | 205° |
| 2026-05-06 12:18 | -23.34277 | -46.70051 | 23064 ft | 375 kts | 205° |
| 2026-05-06 12:18 | -23.36669 | -46.71197 | 23196 ft | 376 kts | 205° |
| 2026-05-06 12:18 | -23.39064 | -46.72345 | 23330 ft | 376 kts | 205° |
| 2026-05-06 12:19 | -23.41458 | -46.73492 | 23462 ft | 376 kts | 205° |
| 2026-05-06 12:19 | -23.43859 | -46.74642 | 23594 ft | 377 kts | 205° |
| 2026-05-06 12:19 | -23.46261 | -46.75793 | 23727 ft | 377 kts | 205° |
| 2026-05-06 12:19 | -23.48664 | -46.76945 | 23853 ft | 377 kts | 205° |
| 2026-05-06 12:20 | -23.51064 | -46.78098 | 23967 ft | 377 kts | 205° |
| 2026-05-06 12:20 | -23.53463 | -46.79254 | 24074 ft | 377 kts | 205° |
| 2026-05-06 12:20 | -23.55833 | -46.80397 | 24199 ft | 377 kts | 205° |
| 2026-05-06 12:20 | -23.58233 | -46.81547 | 24312 ft | 377 kts | 205° |
| 2026-05-06 12:21 | -23.60638 | -46.82696 | 24423 ft | 377 kts | 205° |
| 2026-05-06 12:21 | -23.63037 | -46.83845 | 24532 ft | 377 kts | 205° |
| 2026-05-06 12:21 | -23.65438 | -46.84999 | 24640 ft | 376 kts | 205° |
| 2026-05-06 12:21 | -23.67833 | -46.86151 | 24748 ft | 376 kts | 205° |
| 2026-05-06 12:22 | -23.70230 | -46.87306 | 24854 ft | 376 kts | 205° |
| 2026-05-06 12:22 | -23.72623 | -46.88459 | 24924 ft | 376 kts | 205° |
| 2026-05-06 12:22 | -23.75018 | -46.89613 | 25039 ft | 375 kts | 205° |
| 2026-05-06 12:22 | -23.77405 | -46.90767 | 25154 ft | 375 kts | 205° |
| 2026-05-06 12:23 | -23.79792 | -46.91921 | 25305 ft | 373 kts | 205° |
| 2026-05-06 12:23 | -23.82154 | -46.93064 | 25537 ft | 369 kts | 205° |
| 2026-05-06 12:23 | -23.84493 | -46.94195 | 25772 ft | 366 kts | 205° |
| 2026-05-06 12:23 | -23.86783 | -46.95303 | 25999 ft | 363 kts | 205° |
| 2026-05-06 12:24 | -23.89083 | -46.96412 | 26236 ft | 360 kts | 204° |
| 2026-05-06 12:24 | -23.91368 | -46.97512 | 26483 ft | 357 kts | 204° |
| 2026-05-06 12:24 | -23.93631 | -46.98604 | 26720 ft | 354 kts | 205° |
| 2026-05-06 12:24 | -23.95873 | -46.99691 | 26963 ft | 351 kts | 204° |
| 2026-05-06 12:25 | -23.98101 | -47.00773 | 27228 ft | 348 kts | 204° |
| 2026-05-06 12:25 | -24.00303 | -47.01842 | 27526 ft | 344 kts | 204° |
| 2026-05-06 12:25 | -24.02482 | -47.02900 | 27828 ft | 341 kts | 204° |
| 2026-05-06 12:25 | -24.04638 | -47.03946 | 28131 ft | 337 kts | 204° |
| 2026-05-06 12:26 | -24.06776 | -47.04985 | 28435 ft | 334 kts | 204° |
| 2026-05-06 12:26 | -24.08890 | -47.06014 | 28743 ft | 331 kts | 204° |
| 2026-05-06 12:26 | -24.10961 | -47.07021 | 29053 ft | 328 kts | 204° |
| 2026-05-06 12:26 | -24.13037 | -47.08029 | 29364 ft | 325 kts | 204° |
| 2026-05-06 12:27 | -24.15100 | -47.09031 | 29698 ft | 322 kts | 204° |
| 2026-05-06 12:27 | -24.17141 | -47.10025 | 30023 ft | 319 kts | 204° |
| 2026-05-06 12:27 | -24.19158 | -47.11007 | 30341 ft | 315 kts | 204° |
| 2026-05-06 12:27 | -24.21150 | -47.11978 | 30614 ft | 312 kts | 204° |
| 2026-05-06 12:28 | -24.23122 | -47.12937 | 30895 ft | 308 kts | 204° |
| 2026-05-06 12:28 | -24.25075 | -47.13886 | 31175 ft | 306 kts | 205° |
| 2026-05-06 12:28 | -24.26952 | -47.14953 | 31459 ft | 303 kts | 211° |
| 2026-05-06 12:28 | -24.28727 | -47.16187 | 31754 ft | 300 kts | 212° |
| 2026-05-06 12:29 | -24.30481 | -47.17407 | 32047 ft | 298 kts | 212° |
| 2026-05-06 12:29 | -24.32223 | -47.18617 | 32331 ft | 295 kts | 212° |
| 2026-05-06 12:29 | -24.33946 | -47.19813 | 32632 ft | 291 kts | 212° |
| 2026-05-06 12:29 | -24.35635 | -47.20983 | 32933 ft | 285 kts | 212° |
| 2026-05-06 12:30 | -24.37300 | -47.22137 | 33242 ft | 281 kts | 212° |
| 2026-05-06 12:30 | -24.38921 | -47.23262 | 33548 ft | 278 kts | 212° |
| 2026-05-06 12:30 | -24.40550 | -47.24392 | 33866 ft | 276 kts | 212° |
| 2026-05-06 12:30 | -24.42160 | -47.25510 | 34178 ft | 272 kts | 213° |
| 2026-05-06 12:31 | -24.43749 | -47.26613 | 34450 ft | 268 kts | 213° |
| 2026-05-06 12:31 | -24.45313 | -47.27701 | 34730 ft | 264 kts | 213° |
| 2026-05-06 12:31 | -24.46852 | -47.28773 | 34967 ft | 261 kts | 213° |
| 2026-05-06 12:31 | -24.48385 | -47.29844 | 35123 ft | 261 kts | 213° |
| 2026-05-06 12:32 | -24.49923 | -47.30915 | 35191 ft | 264 kts | 213° |
| 2026-05-06 12:32 | -24.51496 | -47.32008 | 35183 ft | 270 kts | 213° |
| 2026-05-06 12:32 | -24.53100 | -47.33127 | 35161 ft | 276 kts | 213° |
| 2026-05-06 12:32 | -24.54732 | -47.34265 | 35204 ft | 279 kts | 213° |
| 2026-05-06 12:33 | -24.56376 | -47.35412 | 35304 ft | 280 kts | 213° |
| 2026-05-06 12:33 | -24.58033 | -47.36567 | 35401 ft | 282 kts | 213° |
| 2026-05-06 12:33 | -24.59695 | -47.37723 | 35497 ft | 283 kts | 213° |
| 2026-05-06 12:33 | -24.61358 | -47.38880 | 35588 ft | 284 kts | 213° |
| 2026-05-06 12:34 | -24.63030 | -47.40043 | 35686 ft | 285 kts | 213° |
| 2026-05-06 12:34 | -24.64703 | -47.41209 | 35783 ft | 285 kts | 213° |
| 2026-05-06 12:34 | -24.66359 | -47.42367 | 35881 ft | 286 kts | 213° |
| 2026-05-06 12:34 | -24.68043 | -47.43544 | 35976 ft | 287 kts | 213° |
| 2026-05-06 12:35 | -24.69720 | -47.44720 | 36123 ft | 285 kts | 213° |
| 2026-05-06 12:35 | -24.71398 | -47.45899 | 36184 ft | 287 kts | 213° |
| 2026-05-06 12:35 | -24.73089 | -47.47085 | 36200 ft | 290 kts | 213° |
| 2026-05-06 12:35 | -24.74800 | -47.48283 | 36203 ft | 293 kts | 213° |
| 2026-05-06 12:36 | -24.76529 | -47.49496 | 36204 ft | 296 kts | 213° |
| 2026-05-06 12:36 | -24.78274 | -47.50719 | 36203 ft | 299 kts | 213° |
| 2026-05-06 12:36 | -24.81817 | -47.53205 | 36207 ft | 305 kts | 213° |
| 2026-05-06 12:37 | -24.85419 | -47.55726 | 36204 ft | 309 kts | 213° |
| 2026-05-06 12:37 | -24.89073 | -47.58281 | 36199 ft | 313 kts | 213° |
| 2026-05-06 12:38 | -24.92754 | -47.60865 | 36203 ft | 315 kts | 213° |
| 2026-05-06 12:38 | -24.96451 | -47.63463 | 36198 ft | 315 kts | 213° |
| 2026-05-06 12:39 | -25.00146 | -47.66067 | 36196 ft | 315 kts | 213° |
| 2026-05-06 12:39 | -25.03910 | -47.68713 | 36204 ft | 332 kts | 213° |
| 2026-05-06 12:40 | -25.05896 | -47.70108 | 36201 ft | 344 kts | 213° |
| 2026-05-06 12:40 | -25.07910 | -47.71528 | 36196 ft | 343 kts | 213° |
| 2026-05-06 12:40 | -25.09920 | -47.72948 | 36369 ft | 350 kts | 213° |
| 2026-05-06 12:40 | -25.11972 | -47.74399 | 36785 ft | 350 kts | 214° |
| 2026-05-06 12:41 | -25.14017 | -47.75846 | 37293 ft | 348 kts | 214° |
| 2026-05-06 12:41 | -25.16043 | -47.77279 | 37877 ft | 343 kts | 214° |
| 2026-05-06 12:41 | -25.18034 | -47.78685 | 38146 ft | 336 kts | 214° |
| 2026-05-06 12:41 | -25.19982 | -47.80060 | 38199 ft | 330 kts | 214° |
| 2026-05-06 12:42 | -25.23823 | -47.82770 | 38201 ft | 326 kts | 214° |
| 2026-05-06 12:42 | -25.27643 | -47.85465 | 38201 ft | 325 kts | 214° |
| 2026-05-06 12:43 | -25.31454 | -47.88169 | 38198 ft | 325 kts | 214° |
| 2026-05-06 12:43 | -25.35264 | -47.90872 | 38201 ft | 325 kts | 214° |
| 2026-05-06 12:44 | -25.39075 | -47.93569 | 38201 ft | 325 kts | 214° |
| 2026-05-06 12:44 | -25.42238 | -47.95814 | 38210 ft | 325 kts | 214° |
| 2026-05-06 12:45 | -25.46051 | -47.98514 | 38207 ft | 325 kts | 214° |
| 2026-05-06 12:46 | -25.51771 | -48.02569 | 38209 ft | 325 kts | 214° |
| 2026-05-06 12:46 | -25.55577 | -48.05273 | 38208 ft | 325 kts | 214° |
| 2026-05-06 12:47 | -25.59353 | -48.07966 | 38206 ft | 325 kts | 214° |
| 2026-05-06 12:47 | -25.63158 | -48.10677 | 38206 ft | 325 kts | 214° |
| 2026-05-06 12:48 | -25.66962 | -48.13387 | 38205 ft | 325 kts | 214° |
| 2026-05-06 12:48 | -25.70770 | -48.16092 | 38201 ft | 324 kts | 214° |
| 2026-05-06 12:49 | -25.74547 | -48.18779 | 38212 ft | 324 kts | 215° |
| 2026-05-06 12:49 | -25.78341 | -48.21483 | 38209 ft | 324 kts | 214° |
| 2026-05-06 12:50 | -25.82143 | -48.24193 | 38213 ft | 324 kts | 215° |
| 2026-05-06 12:50 | -25.85939 | -48.26896 | 38211 ft | 324 kts | 215° |
| 2026-05-06 12:51 | -25.89703 | -48.29589 | 38209 ft | 324 kts | 215° |
| 2026-05-06 12:51 | -25.93486 | -48.32298 | 38207 ft | 323 kts | 215° |
| 2026-05-06 12:52 | -25.97277 | -48.35011 | 38206 ft | 323 kts | 215° |
| 2026-05-06 12:52 | -26.01060 | -48.37718 | 38205 ft | 323 kts | 215° |
| 2026-05-06 12:53 | -26.04839 | -48.40423 | 38220 ft | 323 kts | 215° |
| 2026-05-06 12:53 | -26.08605 | -48.43124 | 38217 ft | 323 kts | 215° |
| 2026-05-06 12:54 | -26.12387 | -48.45839 | 38207 ft | 323 kts | 215° |
| 2026-05-06 12:54 | -26.16163 | -48.48556 | 38206 ft | 323 kts | 215° |
| 2026-05-06 12:55 | -26.19943 | -48.51277 | 38206 ft | 324 kts | 215° |
| 2026-05-06 12:55 | -26.23731 | -48.54002 | 38206 ft | 324 kts | 215° |
| 2026-05-06 12:56 | -26.27511 | -48.56725 | 38210 ft | 324 kts | 215° |
| 2026-05-06 12:56 | -26.31271 | -48.59435 | 38212 ft | 324 kts | 215° |
| 2026-05-06 12:57 | -26.35048 | -48.62164 | 38233 ft | 324 kts | 216° |
| 2026-05-06 12:57 | -26.38828 | -48.64897 | 38227 ft | 324 kts | 216° |
| 2026-05-06 12:58 | -26.42606 | -48.67627 | 38223 ft | 323 kts | 216° |
| 2026-05-06 12:58 | -26.46384 | -48.70354 | 38226 ft | 323 kts | 216° |
| 2026-05-06 12:59 | -26.50140 | -48.73097 | 38220 ft | 322 kts | 216° |
| 2026-05-06 12:59 | -26.53860 | -48.75847 | 38217 ft | 322 kts | 216° |
| 2026-05-06 13:00 | -26.57600 | -48.78606 | 38217 ft | 322 kts | 216° |
| 2026-05-06 13:00 | -26.61338 | -48.81364 | 38218 ft | 322 kts | 216° |
| 2026-05-06 13:01 | -26.65074 | -48.84119 | 38220 ft | 322 kts | 216° |
| 2026-05-06 13:01 | -26.68818 | -48.86876 | 38227 ft | 322 kts | 216° |
| 2026-05-06 13:02 | -26.72564 | -48.89610 | 38223 ft | 322 kts | 216° |
| 2026-05-06 13:02 | -26.76320 | -48.92347 | 38215 ft | 322 kts | 216° |
| 2026-05-06 13:03 | -26.80040 | -48.95069 | 38217 ft | 321 kts | 216° |
| 2026-05-06 13:03 | -26.83783 | -48.97802 | 38215 ft | 321 kts | 216° |
| 2026-05-06 13:04 | -26.87521 | -49.00535 | 38215 ft | 321 kts | 216° |
| 2026-05-06 13:04 | -26.91259 | -49.03272 | 38215 ft | 321 kts | 216° |
| 2026-05-06 13:05 | -26.94990 | -49.06010 | 38207 ft | 321 kts | 216° |
| 2026-05-06 13:05 | -26.98725 | -49.08752 | 38196 ft | 321 kts | 216° |
| 2026-05-06 13:06 | -27.02463 | -49.11509 | 38196 ft | 322 kts | 216° |
| 2026-05-06 13:06 | -27.06209 | -49.14270 | 38196 ft | 322 kts | 216° |
| 2026-05-06 13:07 | -27.09955 | -49.17027 | 38202 ft | 322 kts | 216° |
| 2026-05-06 13:07 | -27.13704 | -49.19781 | 38207 ft | 322 kts | 216° |
| 2026-05-06 13:08 | -27.17425 | -49.22518 | 38208 ft | 322 kts | 216° |
| 2026-05-06 13:08 | -27.21169 | -49.25278 | 38210 ft | 322 kts | 216° |
| 2026-05-06 13:09 | -27.24906 | -49.28039 | 38219 ft | 322 kts | 216° |
| 2026-05-06 13:09 | -27.28645 | -49.30807 | 38236 ft | 322 kts | 216° |
| 2026-05-06 13:10 | -27.32387 | -49.33574 | 38235 ft | 321 kts | 216° |
| 2026-05-06 13:10 | -27.36120 | -49.36335 | 38234 ft | 321 kts | 216° |
| 2026-05-06 13:11 | -27.39825 | -49.39080 | 38236 ft | 321 kts | 216° |
| 2026-05-06 13:11 | -27.43547 | -49.41842 | 38232 ft | 320 kts | 217° |
| 2026-05-06 13:12 | -27.47269 | -49.44603 | 38237 ft | 320 kts | 216° |
| 2026-05-06 13:12 | -27.50992 | -49.47364 | 38234 ft | 320 kts | 216° |
| 2026-05-06 13:13 | -27.54714 | -49.50126 | 38235 ft | 320 kts | 216° |
| 2026-05-06 13:13 | -27.58432 | -49.52882 | 38253 ft | 319 kts | 217° |
| 2026-05-06 13:14 | -27.62149 | -49.55635 | 38255 ft | 319 kts | 217° |
| 2026-05-06 13:14 | -27.65859 | -49.58387 | 38255 ft | 319 kts | 217° |
| 2026-05-06 13:15 | -27.69570 | -49.61143 | 38253 ft | 319 kts | 217° |
| 2026-05-06 13:15 | -27.73257 | -49.63883 | 38253 ft | 319 kts | 217° |
| 2026-05-06 13:16 | -27.76983 | -49.66614 | 38251 ft | 320 kts | 216° |
| 2026-05-06 13:16 | -27.80755 | -49.69286 | 38249 ft | 320 kts | 216° |
| 2026-05-06 13:17 | -27.84533 | -49.71963 | 38255 ft | 320 kts | 216° |
| 2026-05-06 13:17 | -27.88300 | -49.74645 | 38255 ft | 320 kts | 216° |
| 2026-05-06 13:18 | -27.92038 | -49.77312 | 38256 ft | 320 kts | 217° |
| 2026-05-06 13:18 | -27.95804 | -49.80007 | 38248 ft | 319 kts | 216° |
| 2026-05-06 13:19 | -27.99558 | -49.82692 | 38250 ft | 320 kts | 216° |
| 2026-05-06 13:19 | -28.03334 | -49.85397 | 38254 ft | 321 kts | 216° |
| 2026-05-06 13:20 | -28.07110 | -49.88111 | 38257 ft | 321 kts | 217° |
| 2026-05-06 13:20 | -28.10885 | -49.90818 | 38249 ft | 321 kts | 216° |
| 2026-05-06 13:21 | -28.14658 | -49.93526 | 38256 ft | 321 kts | 216° |
| 2026-05-06 13:21 | -28.18434 | -49.96237 | 38255 ft | 321 kts | 216° |
| 2026-05-06 13:22 | -28.22191 | -49.98925 | 38266 ft | 321 kts | 217° |
| 2026-05-06 13:22 | -28.25963 | -50.01642 | 38254 ft | 321 kts | 217° |
| 2026-05-06 13:23 | -28.29725 | -50.04357 | 38255 ft | 320 kts | 217° |
| 2026-05-06 13:23 | -28.33482 | -50.07067 | 38251 ft | 320 kts | 217° |
| 2026-05-06 13:24 | -28.37236 | -50.09780 | 38233 ft | 320 kts | 217° |
| 2026-05-06 13:24 | -28.40975 | -50.12482 | 38237 ft | 320 kts | 217° |
| 2026-05-06 13:25 | -28.44742 | -50.15208 | 38225 ft | 321 kts | 217° |
| 2026-05-06 13:25 | -28.48511 | -50.17933 | 38231 ft | 320 kts | 217° |
| 2026-05-06 13:26 | -28.52252 | -50.20638 | 38242 ft | 320 kts | 217° |
| 2026-05-06 13:26 | -28.56012 | -50.23361 | 38233 ft | 320 kts | 217° |
| 2026-05-06 13:27 | -28.59767 | -50.26090 | 38225 ft | 320 kts | 217° |
| 2026-05-06 13:27 | -28.63522 | -50.28812 | 38221 ft | 320 kts | 217° |
| 2026-05-06 13:28 | -28.67365 | -50.31353 | 38219 ft | 322 kts | 214° |
| 2026-05-06 13:28 | -28.71294 | -50.33813 | 38217 ft | 322 kts | 214° |
| 2026-05-06 13:29 | -28.75214 | -50.36280 | 38208 ft | 322 kts | 214° |
| 2026-05-06 13:29 | -28.79120 | -50.38769 | 38223 ft | 321 kts | 214° |
| 2026-05-06 13:30 | -28.83020 | -50.41259 | 38217 ft | 321 kts | 215° |
| 2026-05-06 13:30 | -28.86923 | -50.43755 | 38200 ft | 322 kts | 215° |
| 2026-05-06 13:31 | -28.90827 | -50.46261 | 38198 ft | 322 kts | 215° |
| 2026-05-06 13:31 | -28.94746 | -50.48773 | 38200 ft | 323 kts | 215° |
| 2026-05-06 13:32 | -28.98668 | -50.51286 | 38196 ft | 323 kts | 215° |
| 2026-05-06 13:32 | -29.02565 | -50.53785 | 38197 ft | 323 kts | 215° |
| 2026-05-06 13:33 | -29.06502 | -50.56311 | 38197 ft | 323 kts | 215° |
| 2026-05-06 13:33 | -29.09764 | -50.58410 | 38206 ft | 324 kts | 215° |
| 2026-05-06 13:34 | -29.13688 | -50.60942 | 38196 ft | 324 kts | 215° |
| 2026-05-06 13:34 | -29.17614 | -50.63480 | 38193 ft | 324 kts | 215° |
| 2026-05-06 13:35 | -29.21548 | -50.66013 | 38182 ft | 324 kts | 215° |
| 2026-05-06 13:35 | -29.25480 | -50.68550 | 38180 ft | 324 kts | 215° |
| 2026-05-06 13:36 | -29.29414 | -50.71094 | 38171 ft | 325 kts | 215° |
| 2026-05-06 13:36 | -29.33326 | -50.73627 | 38156 ft | 325 kts | 215° |
| 2026-05-06 13:37 | -29.37264 | -50.76179 | 38169 ft | 325 kts | 215° |
| 2026-05-06 13:37 | -29.41203 | -50.78727 | 38159 ft | 325 kts | 216° |
| 2026-05-06 13:38 | -29.45146 | -50.81281 | 38139 ft | 325 kts | 215° |
| 2026-05-06 13:38 | -29.49091 | -50.83833 | 38136 ft | 325 kts | 215° |
| 2026-05-06 13:39 | -29.53038 | -50.86392 | 38135 ft | 325 kts | 216° |
| 2026-05-06 13:39 | -29.56979 | -50.88953 | 38117 ft | 325 kts | 216° |
| 2026-05-06 13:40 | -29.60920 | -50.91518 | 38112 ft | 325 kts | 216° |
| 2026-05-06 13:40 | -29.64858 | -50.94085 | 38110 ft | 325 kts | 216° |
| 2026-05-06 13:41 | -29.68795 | -50.96658 | 38110 ft | 326 kts | 216° |
| 2026-05-06 13:41 | -29.72739 | -50.99233 | 38104 ft | 327 kts | 216° |
| 2026-05-06 13:42 | -29.76671 | -51.01801 | 38100 ft | 327 kts | 216° |
| 2026-05-06 13:42 | -29.80640 | -51.04389 | 38101 ft | 328 kts | 216° |
| 2026-05-06 13:43 | -29.84609 | -51.06982 | 38099 ft | 328 kts | 216° |
| 2026-05-06 13:43 | -29.88581 | -51.09582 | 38103 ft | 328 kts | 216° |
| 2026-05-06 13:44 | -29.92542 | -51.12187 | 38106 ft | 328 kts | 216° |
| 2026-05-06 13:44 | -29.96514 | -51.14784 | 38110 ft | 328 kts | 216° |
| 2026-05-06 13:45 | -30.00461 | -51.17371 | 38080 ft | 328 kts | 216° |
| 2026-05-06 13:45 | -30.06404 | -51.21274 | 38083 ft | 328 kts | 216° |
| 2026-05-06 13:46 | -30.10362 | -51.23881 | 38086 ft | 327 kts | 216° |
| 2026-05-06 13:46 | -30.14319 | -51.26490 | 38083 ft | 327 kts | 216° |
| 2026-05-06 13:47 | -30.18266 | -51.29096 | 38086 ft | 327 kts | 216° |
| 2026-05-06 13:47 | -30.22214 | -51.31704 | 38087 ft | 327 kts | 216° |
| 2026-05-06 13:48 | -30.26164 | -51.34319 | 38084 ft | 327 kts | 216° |
| 2026-05-06 13:48 | -30.30125 | -51.36941 | 38033 ft | 332 kts | 216° |
| 2026-05-06 13:49 | -30.32178 | -51.38306 | 37761 ft | 350 kts | 216° |
| 2026-05-06 13:49 | -30.34338 | -51.39744 | 37496 ft | 364 kts | 216° |
| 2026-05-06 13:49 | -30.36528 | -51.41196 | 37238 ft | 370 kts | 216° |
| 2026-05-06 13:49 | -30.38770 | -51.42673 | 36981 ft | 370 kts | 215° |
| 2026-05-06 13:50 | -30.41013 | -51.44149 | 36726 ft | 370 kts | 215° |
| 2026-05-06 13:50 | -30.43245 | -51.45622 | 36474 ft | 368 kts | 215° |
| 2026-05-06 13:50 | -30.45463 | -51.47093 | 36231 ft | 365 kts | 215° |
| 2026-05-06 13:50 | -30.47642 | -51.48540 | 35854 ft | 357 kts | 215° |
| 2026-05-06 13:51 | -30.49782 | -51.49960 | 35423 ft | 352 kts | 215° |
| 2026-05-06 13:51 | -30.51897 | -51.51366 | 34995 ft | 347 kts | 215° |
| 2026-05-06 13:51 | -30.53986 | -51.52760 | 34487 ft | 346 kts | 215° |
| 2026-05-06 13:51 | -30.56072 | -51.54144 | 33941 ft | 345 kts | 214° |
| 2026-05-06 13:52 | -30.58164 | -51.55514 | 33380 ft | 343 kts | 214° |
| 2026-05-06 13:52 | -30.60203 | -51.56857 | 32867 ft | 340 kts | 214° |
| 2026-05-06 13:52 | -30.62259 | -51.58226 | 32375 ft | 338 kts | 215° |
| 2026-05-06 13:52 | -30.64289 | -51.59588 | 31867 ft | 336 kts | 215° |
| 2026-05-06 13:53 | -30.66308 | -51.60946 | 31382 ft | 335 kts | 215° |
| 2026-05-06 13:53 | -30.68320 | -51.62302 | 30895 ft | 334 kts | 215° |
| 2026-05-06 13:53 | -30.70330 | -51.63656 | 30434 ft | 333 kts | 215° |
| 2026-05-06 13:53 | -30.72332 | -51.65011 | 29935 ft | 333 kts | 216° |
| 2026-05-06 13:54 | -30.74300 | -51.66422 | 29438 ft | 330 kts | 217° |
| 2026-05-06 13:54 | -30.76222 | -51.67862 | 28975 ft | 327 kts | 218° |
| 2026-05-06 13:54 | -30.78118 | -51.69309 | 28530 ft | 324 kts | 218° |
| 2026-05-06 13:54 | -30.79995 | -51.70746 | 28085 ft | 321 kts | 218° |
| 2026-05-06 13:55 | -30.81857 | -51.72164 | 27626 ft | 319 kts | 218° |
| 2026-05-06 13:55 | -30.83685 | -51.73549 | 27181 ft | 316 kts | 218° |
| 2026-05-06 13:55 | -30.85525 | -51.74937 | 26715 ft | 314 kts | 218° |
| 2026-05-06 13:55 | -30.87355 | -51.76314 | 26244 ft | 312 kts | 218° |
| 2026-05-06 13:56 | -30.89178 | -51.77686 | 25764 ft | 311 kts | 218° |
| 2026-05-06 13:56 | -30.90999 | -51.79056 | 25270 ft | 311 kts | 219° |
| 2026-05-06 13:56 | -30.92819 | -51.80425 | 24766 ft | 311 kts | 219° |
| 2026-05-06 13:56 | -30.94642 | -51.81798 | 24246 ft | 312 kts | 219° |
| 2026-05-06 13:57 | -30.96471 | -51.83180 | 23726 ft | 314 kts | 219° |
| 2026-05-06 13:57 | -30.98308 | -51.84566 | 23142 ft | 315 kts | 219° |
| 2026-05-06 13:57 | -31.00141 | -51.85947 | 22624 ft | 314 kts | 218° |
| 2026-05-06 13:57 | -31.01972 | -51.87326 | 22118 ft | 313 kts | 218° |
| 2026-05-06 13:58 | -31.03776 | -51.88684 | 21628 ft | 312 kts | 218° |
| 2026-05-06 13:58 | -31.05600 | -51.90059 | 21135 ft | 312 kts | 218° |
| 2026-05-06 13:58 | -31.07421 | -51.91436 | 20649 ft | 312 kts | 218° |
| 2026-05-06 13:58 | -31.09240 | -51.92812 | 20156 ft | 312 kts | 218° |
| 2026-05-06 13:59 | -31.11090 | -51.94210 | 19663 ft | 312 kts | 218° |
| 2026-05-06 13:59 | -31.12889 | -51.95572 | 19193 ft | 313 kts | 217° |
| 2026-05-06 13:59 | -31.14721 | -51.96959 | 18700 ft | 314 kts | 217° |
| 2026-05-06 13:59 | -31.16555 | -51.98344 | 18190 ft | 314 kts | 217° |
| 2026-05-06 14:00 | -31.18387 | -51.99727 | 17686 ft | 313 kts | 217° |
| 2026-05-06 14:00 | -31.20209 | -52.01107 | 17218 ft | 311 kts | 217° |
| 2026-05-06 14:00 | -31.22017 | -52.02478 | 16753 ft | 309 kts | 217° |
| 2026-05-06 14:00 | -31.23818 | -52.03847 | 16298 ft | 308 kts | 217° |
| 2026-05-06 14:01 | -31.25611 | -52.05210 | 15846 ft | 307 kts | 217° |
| 2026-05-06 14:01 | -31.27399 | -52.06572 | 15399 ft | 306 kts | 218° |
| 2026-05-06 14:01 | -31.29183 | -52.07934 | 14952 ft | 306 kts | 218° |
| 2026-05-06 14:01 | -31.30967 | -52.09291 | 14514 ft | 306 kts | 218° |
| 2026-05-06 14:02 | -31.32755 | -52.10649 | 14069 ft | 306 kts | 218° |
| 2026-05-06 14:02 | -31.34544 | -52.12009 | 13591 ft | 307 kts | 218° |
| 2026-05-06 14:02 | -31.36308 | -52.13349 | 13130 ft | 306 kts | 218° |
| 2026-05-06 14:02 | -31.38091 | -52.14704 | 12667 ft | 305 kts | 218° |
| 2026-05-06 14:03 | -31.39865 | -52.16055 | 12217 ft | 303 kts | 218° |
| 2026-05-06 14:03 | -31.41631 | -52.17399 | 11755 ft | 302 kts | 218° |
| 2026-05-06 14:03 | -31.43392 | -52.18742 | 11288 ft | 302 kts | 218° |
| 2026-05-06 14:03 | -31.45152 | -52.20081 | 10822 ft | 302 kts | 217° |
| 2026-05-06 14:04 | -31.46902 | -52.21410 | 10557 ft | 294 kts | 217° |
| 2026-05-06 14:04 | -31.48591 | -52.22693 | 10355 ft | 281 kts | 218° |
| 2026-05-06 14:04 | -31.50166 | -52.23890 | 10295 ft | 258 kts | 218° |
| 2026-05-06 14:04 | -31.51607 | -52.24983 | 10297 ft | 236 kts | 218° |
| 2026-05-06 14:05 | -31.52967 | -52.26020 | 10300 ft | 231 kts | 219° |
| 2026-05-06 14:05 | -31.54318 | -52.27059 | 9988 ft | 236 kts | 219° |
| 2026-05-06 14:05 | -31.55676 | -52.28102 | 9593 ft | 230 kts | 219° |
| 2026-05-06 14:05 | -31.57024 | -52.29137 | 8993 ft | 234 kts | 219° |
| 2026-05-06 14:06 | -31.58393 | -52.30190 | 8419 ft | 236 kts | 219° |
| 2026-05-06 14:06 | -31.59756 | -52.31236 | 7970 ft | 232 kts | 219° |
| 2026-05-06 14:06 | -31.61092 | -52.32260 | 7566 ft | 227 kts | 219° |
| 2026-05-06 14:06 | -31.62409 | -52.33268 | 7178 ft | 224 kts | 219° |
| 2026-05-06 14:07 | -31.63710 | -52.34266 | 6779 ft | 223 kts | 219° |
| 2026-05-06 14:07 | -31.65001 | -52.35271 | 6350 ft | 221 kts | 223° |
| 2026-05-06 14:07 | -31.66039 | -52.36537 | 5930 ft | 214 kts | 238° |
| 2026-05-06 14:07 | -31.66904 | -52.37938 | 5510 ft | 211 kts | 242° |
| 2026-05-06 14:08 | -31.67720 | -52.39362 | 5103 ft | 209 kts | 242° |
| 2026-05-06 14:08 | -31.68513 | -52.40763 | 4695 ft | 208 kts | 242° |
| 2026-05-06 14:08 | -31.69303 | -52.42172 | 4269 ft | 205 kts | 242° |
| 2026-05-06 14:08 | -31.70069 | -52.43556 | 3966 ft | 197 kts | 242° |
| 2026-05-06 14:09 | -31.70804 | -52.44883 | 3674 ft | 191 kts | 243° |
| 2026-05-06 14:09 | -31.71527 | -52.46172 | 3434 ft | 185 kts | 243° |
| 2026-05-06 14:09 | -31.72261 | -52.47386 | 3120 ft | 183 kts | 233° |
| 2026-05-06 14:09 | -31.73365 | -52.48132 | 2821 ft | 187 kts | 197° |
| 2026-05-06 14:10 | -31.74657 | -52.47995 | 2531 ft | 190 kts | 159° |
| 2026-05-06 14:10 | -31.75623 | -52.47024 | 2246 ft | 180 kts | 120° |
| 2026-05-06 14:10 | -31.76079 | -52.45701 | 1957 ft | 173 kts | 105° |
| 2026-05-06 14:10 | -31.76485 | -52.44406 | 1753 ft | 160 kts | 107° |
| 2026-05-06 14:11 | -31.76860 | -52.43239 | 1694 ft | 147 kts | 106° |
| 2026-05-06 14:11 | -31.77146 | -52.42122 | 1692 ft | 139 kts | 90° |
| 2026-05-06 14:11 | -31.77081 | -52.41039 | 1705 ft | 132 kts | 69° |
| 2026-05-06 14:11 | -31.76702 | -52.40065 | 1403 ft | 127 kts | 49° |
| 2026-05-06 14:12 | -31.76155 | -52.39271 | 1071 ft | 126 kts | 45° |
| 2026-05-06 14:12 | -31.75604 | -52.38467 | 759 ft | 127 kts | 50° |
| 2026-05-06 14:12 | -31.75063 | -52.37685 | 638 ft | 122 kts | 52° |
| 2026-05-06 14:12 | -31.74532 | -52.36913 | 578 ft | 119 kts | 54° |
| 2026-05-06 14:13 | -31.74023 | -52.36161 | 526 ft | 118 kts | 56° |
| 2026-05-06 14:13 | -31.73513 | -52.35399 | 399 ft | 119 kts | 55° |
| 2026-05-06 14:13 | -31.72993 | -52.34654 | 310 ft | 119 kts | 54° |
| 2026-05-06 14:13 | -31.72481 | -52.33898 | 166 ft | 118 kts | 54° |
| 2026-05-06 14:14 | -31.71981 | -52.33178 | 75 ft | 101 kts | 53° |
| 2026-05-06 14:14 | -31.71633 | -52.32663 | 68 ft | 56 kts | 51° |
| 2026-05-06 14:14 | -31.71491 | -52.32460 | 73 ft | 18 kts | 49° |
| 2026-05-06 14:14 | -31.71450 | -52.32397 | 70 ft | 3 kts | 291° |
| 2026-05-06 14:15 | -31.71481 | -52.32444 | 73 ft | 11 kts | 227° |
| 2026-05-06 14:15 | -31.71546 | -52.32538 | 72 ft | 17 kts | 232° |
| 2026-05-06 14:15 | -31.71625 | -52.32654 | 65 ft | 19 kts | 231° |
| 2026-05-06 14:15 | -31.71716 | -52.32784 | 69 ft | 17 kts | 230° |
| 2026-05-06 14:16 | -31.71793 | -52.32897 | 68 ft | 15 kts | 231° |
| 2026-05-06 14:16 | -31.71770 | -52.32996 | 71 ft | 15 kts | 320° |
| 2026-05-06 14:16 | -31.71701 | -52.33057 | 73 ft | 13 kts | 331° |
| 2026-05-06 14:16 | -31.71625 | -52.33025 | 67 ft | 13 kts | 54° |
| 2026-05-06 14:17 | -31.71600 | -52.32988 | 74 ft | 0 kts | 51° |